Time;durP1;ratioP1;P1;durP2;ratioP2;P2;SDS_P1;SDS_P2;PMS_P1;PMS_P2;Temp;Humidity;BMP_temperature;BMP_pressure;BME280_temperature;BME280_humidity;BME280_pressure;Samples;Min_cycle;Max_cycle;Signal;HPM_P1;HPM_P2
2021/05/06 00:02:12;;;;;;;11.35;4.30;;;;;;;9.63;70.38;98915.23;1669132;85;21237;-82
2021/05/06 00:04:50;;;;;;;10.20;3.98;;;;;;;9.70;69.91;98916.13;1666604;84;21213;-81
2021/05/06 00:34:07;;;;;;;8.25;3.80;;;;;;;9.09;65.73;98936.44;1669635;82;21161;-82
2021/05/06 00:36:34;;;;;;;9.75;3.50;;;;;;;9.19;65.72;98958.09;1645811;85;27144;-83
2021/05/06 00:39:07;;;;;;;7.40;2.87;;;;;;;9.22;65.34;98947.20;1640778;86;21267;-83
2021/05/06 00:41:44;;;;;;;7.35;3.22;;;;;;;9.23;64.91;98954.60;1645037;86;21162;-82
2021/05/06 00:57:39;;;;;;;8.60;3.33;;;;;;;9.42;64.66;98969.12;1594701;89;21283;-81
2021/05/06 01:05:43;;;;;;;10.78;4.22;;;;;;;9.26;65.94;98969.58;1603941;87;25345;-81
2021/05/06 01:07:53;;;;;;;9.85;3.98;;;;;;;9.25;66.10;98970.56;1635719;86;21080;-81
2021/05/06 01:12:48;;;;;;;9.50;4.12;;;;;;;9.41;65.87;98960.89;1639169;86;22374;-81
2021/05/06 01:15:14;;;;;;;12.23;4.17;;;;;;;9.22;66.07;98974.87;1648480;85;21652;-81
2021/05/06 01:17:40;;;;;;;10.65;3.80;;;;;;;9.42;65.67;98974.39;1644323;86;21170;-80
2021/05/06 01:20:07;;;;;;;9.55;4.22;;;;;;;9.32;65.68;98977.25;1641972;86;28492;-84
2021/05/06 01:22:33;;;;;;;15.72;3.67;;;;;;;9.23;66.21;98979.15;1638757;86;21668;-80
2021/05/06 01:25:00;;;;;;;9.73;3.90;;;;;;;9.04;66.10;98990.95;1637276;86;22356;-81
2021/05/06 01:32:37;;;;;;;7.65;3.40;;;;;;;8.85;65.79;99004.08;1641573;86;28322;-80
2021/05/06 01:35:02;;;;;;;13.00;3.05;;;;;;;8.84;65.86;99009.52;1631238;86;21221;-81
2021/05/06 01:37:48;;;;;;;;;;;;;;;8.77;65.51;98997.55;1642433;87;21160;-85
2021/05/06 01:40:17;;;;;;;6.37;2.80;;;;;;;8.68;65.29;99004.66;1630664;86;20253;-82
2021/05/06 01:42:31;;;;;;;8.43;2.92;;;;;;;8.72;65.05;99011.73;1629394;87;21053;-82
2021/05/06 01:45:27;;;;;;;;;;;;;;;8.87;64.48;98998.16;1639161;86;21630;-83
2021/05/06 01:47:46;;;;;;;7.47;2.60;;;;;;;8.77;64.28;99009.39;1634806;87;20291;-84
2021/05/06 01:50:29;;;;;;;6.65;2.50;;;;;;;8.81;64.45;98994.91;1637449;85;21199;-87
2021/05/06 02:00:41;;;;;;;5.83;2.20;;;;;;;8.82;63.90;99004.42;1633442;85;22308;-80
2021/05/06 02:03:05;;;;;;;;;;;;;;;8.80;63.91;99015.12;1638608;87;21219;-79
2021/05/06 02:05:31;;;;;;;6.72;2.47;;;;;;;8.88;63.99;99007.67;1638422;86;20252;-85
2021/05/06 02:07:57;;;;;;;7.08;2.22;;;;;;;8.75;64.19;99011.39;1634782;86;25529;-81
2021/05/06 02:10:25;;;;;;;7.42;2.40;;;;;;;8.76;64.39;99010.37;1638355;86;28518;-80
2021/05/06 02:12:51;;;;;;;5.37;2.22;;;;;;;8.82;64.12;99011.51;1635061;86;21179;-82
2021/05/06 02:15:21;;;;;;;6.40;2.10;;;;;;;8.76;64.32;99013.00;1636850;86;21986;-80
2021/05/06 02:17:45;;;;;;;;;;;;;;;8.96;64.06;99003.70;1639599;85;21749;-81
2021/05/06 02:20:13;;;;;;;6.45;2.40;;;;;;;8.91;63.91;99015.23;1636650;85;21096;-81
2021/05/06 02:22:39;;;;;;;6.28;2.22;;;;;;;8.85;64.35;99016.42;1637075;86;21199;-80
2021/05/06 02:25:06;;;;;;;8.05;2.50;;;;;;;8.91;64.30;99024.44;1638427;86;27177;-81
2021/05/06 02:27:32;;;;;;;7.80;2.50;;;;;;;8.84;64.92;99010.35;1632694;86;21925;-84
2021/05/06 02:29:59;;;;;;;7.70;2.45;;;;;;;8.83;64.89;99013.16;1635299;86;21207;-81
2021/05/06 02:32:25;;;;;;;6.87;2.55;;;;;;;8.93;64.84;99027.74;1635643;87;21210;-80
2021/05/06 02:34:51;;;;;;;7.62;2.30;;;;;;;8.94;64.95;99010.13;1626409;86;21220;-84
2021/05/06 02:37:18;;;;;;;10.20;2.83;;;;;;;9.06;64.97;99013.16;1623601;86;26827;-83
2021/05/06 02:39:46;;;;;;;9.03;2.47;;;;;;;9.12;64.80;99007.19;1623790;86;21685;-84
2021/05/06 02:42:11;;;;;;;;;;;;;;;9.02;65.15;99013.20;1628768;87;21305;-84
2021/05/06 02:44:37;;;;;;;7.33;2.50;;;;;;;8.93;65.29;99015.05;1626809;87;20240;-86
2021/05/06 02:47:04;;;;;;;8.30;2.52;;;;;;;9.02;65.21;99018.47;1626685;86;28479;-84
2021/05/06 02:49:29;;;;;;;6.42;2.72;;;;;;;9.22;64.84;99021.47;1628364;86;21143;-86
2021/05/06 02:52:02;;;;;;;7.28;2.58;;;;;;;8.97;65.50;99018.98;1626093;87;21301;-82
2021/05/06 02:54:24;;;;;;;;;;;;;;;8.70;66.05;99032.95;1625419;87;21227;-80
2021/05/06 02:57:06;;;;;;;7.60;2.70;;;;;;;8.86;66.03;99030.73;1623476;87;20272;-82
2021/05/06 03:02:43;;;;;;;7.70;2.72;;;;;;;8.69;66.55;99033.94;1622715;87;21175;-86
2021/05/06 03:04:46;;;;;;;7.92;2.65;;;;;;;8.56;66.77;99045.02;1623496;87;21251;-83
2021/05/06 03:07:16;;;;;;;5.78;2.35;;;;;;;8.48;66.75;99042.40;1627059;86;21226;-86
2021/05/06 03:12:36;;;;;;;8.33;2.60;;;;;;;8.33;66.00;99072.99;1623394;87;21183;-82
2021/05/06 03:22:49;;;;;;;6.25;2.22;;;;;;;8.26;64.14;99077.64;1621968;87;21251;-89
2021/05/06 03:25:17;;;;;;;10.60;2.47;;;;;;;8.24;63.89;99070.39;1623122;87;21262;-83
2021/05/06 03:27:51;;;;;;;10.48;2.65;;;;;;;8.29;63.77;99088.80;1622698;87;21268;-86
2021/05/06 03:46:15;;;;;;;8.33;2.40;;;;;;;8.16;62.79;99108.55;1656919;84;27110;-83
2021/05/06 04:18:26;;;;;;;8.83;2.33;;;;;;;8.16;64.07;99153.25;1642800;85;21675;-83
2021/05/06 04:26:29;;;;;;;11.75;3.52;;;;;;;8.43;64.15;99174.92;1669334;84;21239;-80
2021/05/06 04:36:52;;;;;;;10.08;3.00;;;;;;;8.22;64.99;99177.58;1697196;83;21235;-80
2021/05/06 04:39:13;;;;;;;11.97;3.10;;;;;;;8.16;64.60;99191.38;1700300;83;21213;-83
2021/05/06 04:41:48;;;;;;;10.20;2.85;;;;;;;8.07;64.88;99205.52;1697990;82;21224;-82
2021/05/06 04:46:46;;;;;;;11.45;3.20;;;;;;;8.11;64.61;99193.69;1701114;83;21030;-80
2021/05/06 04:54:43;;;;;;;10.85;2.90;;;;;;;8.21;62.70;99187.75;1695418;83;21089;-89
2021/05/06 04:57:38;;;;;;;9.78;2.85;;;;;;;8.50;61.95;99202.25;1705342;82;21595;-80
2021/05/06 05:04:57;;;;;;;14.63;3.00;;;;;;;8.34;61.43;99212.23;1699906;83;21189;-80
2021/05/06 05:12:47;;;;;;;12.53;2.90;;;;;;;8.31;60.86;99224.91;1705738;82;21621;-83
2021/05/06 05:17:46;;;;;;;10.93;2.70;;;;;;;8.25;59.32;99262.73;1699462;83;21222;-82
2021/05/06 05:25:33;;;;;;;11.10;2.72;;;;;;;8.29;58.40;99288.20;1703596;83;21136;-82
2021/05/06 05:27:59;;;;;;;14.20;2.92;;;;;;;8.45;58.44;99247.95;1699063;83;21171;-82
2021/05/06 05:30:27;;;;;;;13.18;2.95;;;;;;;8.61;58.61;99226.09;1704205;83;21228;-83
2021/05/06 05:32:53;;;;;;;;;;;;;;;8.63;58.73;99240.70;1699184;82;22256;-86
2021/05/06 05:35:38;;;;;;;12.37;2.60;;;;;;;8.51;58.85;99267.53;1698510;83;20295;-80
2021/05/06 05:38:10;;;;;;;13.10;3.35;;;;;;;8.75;58.62;99264.08;1687266;83;21110;-81
2021/05/06 05:41:00;;;;;;;9.85;2.90;;;;;;;8.58;59.03;99260.63;1690849;83;21078;-82
2021/05/06 05:43:32;;;;;;;11.18;2.80;;;;;;;8.59;58.35;99238.09;1692809;83;21229;-80
2021/05/06 05:56:24;;;;;;;11.65;2.85;;;;;;;8.50;56.16;99277.25;1692235;82;21233;-80
2021/05/06 05:58:51;;;;;;;13.30;3.40;;;;;;;8.65;56.52;99251.06;1694089;82;25975;-81
2021/05/06 06:01:18;;;;;;;10.80;3.10;;;;;;;8.54;56.85;99262.75;1692463;83;21173;-81
2021/05/06 06:03:43;;;;;;;11.05;2.72;;;;;;;8.61;55.89;99288.75;1691250;83;21207;-80
2021/05/06 06:06:09;;;;;;;12.93;3.20;;;;;;;8.82;55.93;99258.45;1692277;84;21899;-78
2021/05/06 06:08:37;;;;;;;14.38;2.98;;;;;;;8.81;56.67;99259.47;1691906;83;27014;-82
2021/05/06 06:11:04;;;;;;;11.10;2.60;;;;;;;8.98;55.70;99265.02;1692723;82;21556;-82
2021/05/06 06:13:31;;;;;;;10.58;3.08;;;;;;;8.90;55.41;99278.21;1691891;84;21213;-84
2021/05/06 06:18:34;;;;;;;12.37;2.75;;;;;;;9.36;54.37;99253.07;1690482;83;22120;-80
2021/05/06 06:21:02;;;;;;;13.53;3.15;;;;;;;9.15;53.27;99267.60;1688524;82;21111;-81
2021/05/06 06:23:24;;;;;;;11.28;2.60;;;;;;;9.19;53.33;99258.38;1687460;84;21666;-89
2021/05/06 06:25:49;;;;;;;11.70;2.40;;;;;;;9.48;53.48;99264.88;1695674;82;21161;-83
2021/05/06 06:28:15;;;;;;;8.53;2.60;;;;;;;9.26;52.95;99277.80;1696673;82;26753;-81
2021/05/06 06:30:41;;;;;;;9.85;2.40;;;;;;;9.54;51.59;99261.56;1691821;83;21815;-84
2021/05/06 06:33:07;;;;;;;10.78;2.45;;;;;;;9.32;52.00;99265.74;1692707;83;21194;-79
2021/05/06 06:35:33;;;;;;;11.10;2.87;;;;;;;9.47;50.80;99276.41;1687850;83;25345;-82
2021/05/06 06:37:59;;;;;;;10.45;2.77;;;;;;;9.46;51.43;99253.20;1689029;83;22337;-81
2021/05/06 06:40:25;;;;;;;14.33;2.83;;;;;;;9.74;51.32;99267.72;1689400;84;26789;-82
2021/05/06 06:42:52;;;;;;;8.18;2.30;;;;;;;9.56;51.50;99266.16;1667953;82;22313;-82
2021/05/06 06:45:20;;;;;;;14.00;2.77;;;;;;;9.63;52.39;99273.72;1688340;84;21260;-83
2021/05/06 06:47:51;;;;;;;;;;;;;;;9.60;53.07;99278.48;1691078;83;21058;-85
2021/05/06 06:50:17;;;;;;;12.23;2.75;;;;;;;9.86;52.93;99275.06;1697766;82;20312;-83
2021/05/06 06:52:43;;;;;;;9.48;2.62;;;;;;;9.67;52.14;99321.13;1693378;84;27267;-83
2021/05/06 06:55:09;;;;;;;9.15;3.10;;;;;;;9.51;52.09;99242.95;1694393;82;21900;-81
2021/05/06 06:57:35;;;;;;;7.35;2.55;;;;;;;9.33;52.52;99307.73;1684317;83;21049;-83
2021/05/06 07:00:01;;;;;;;12.80;2.70;;;;;;;9.60;52.21;99270.11;1697038;82;25445;-85
2021/05/06 07:02:26;;;;;;;8.85;2.80;;;;;;;9.52;51.65;99310.97;1693645;82;29029;-83
2021/05/06 07:04:52;;;;;;;14.18;3.20;;;;;;;9.52;52.41;99279.34;1690287;82;26857;-85
2021/05/06 07:07:18;;;;;;;10.00;2.70;;;;;;;9.60;52.30;99292.51;1690553;83;21854;-81
2021/05/06 07:09:44;;;;;;;9.25;2.50;;;;;;;9.81;52.60;99270.81;1693418;83;26989;-84
2021/05/06 07:12:10;;;;;;;9.40;2.67;;;;;;;10.11;51.29;99285.98;1691592;82;25500;-84
2021/05/06 07:14:37;;;;;;;6.55;2.30;;;;;;;9.68;51.23;99281.92;1696458;82;29000;-81
2021/05/06 07:17:03;;;;;;;;;;;;;;;9.77;51.18;99273.96;1652908;82;21204;-82
2021/05/06 07:19:29;;;;;;;8.70;2.55;;;;;;;9.74;51.02;99279.58;1696551;83;21102;-86
2021/05/06 07:21:54;;;;;;;8.60;2.30;;;;;;;9.91;49.87;99286.41;1691753;83;27125;-86
2021/05/06 07:24:20;;;;;;;9.25;2.77;;;;;;;9.97;50.28;99306.81;1688910;82;25372;-81
2021/05/06 07:26:46;;;;;;;7.65;2.42;;;;;;;10.14;50.55;99315.97;1672836;83;28570;-84
2021/05/06 07:29:15;;;;;;;10.78;2.60;;;;;;;9.98;50.13;99328.25;1716779;81;24185;-81
2021/05/06 07:31:39;;;;;;;;;;;;;;;10.20;50.56;99303.41;1693392;84;21220;-84
2021/05/06 07:34:05;;;;;;;9.00;2.70;;;;;;;10.34;50.46;99331.70;1693393;83;20704;-82
2021/05/06 07:36:31;;;;;;;7.53;2.40;;;;;;;10.27;50.21;99293.80;1681941;83;25728;-83
2021/05/06 07:38:56;;;;;;;11.68;2.98;;;;;;;10.32;49.72;99332.35;1664033;84;28376;-82
2021/05/06 07:41:25;;;;;;;7.85;2.33;;;;;;;10.14;49.05;99322.56;1672055;84;21006;-82
2021/05/06 07:43:51;;;;;;;8.03;2.37;;;;;;;10.17;48.96;99293.20;1649031;84;22055;-83
2021/05/06 07:46:16;;;;;;;8.88;2.67;;;;;;;10.28;49.11;99305.98;1646208;84;28273;-84
2021/05/06 07:48:42;;;;;;;10.48;2.30;;;;;;;10.23;48.34;99325.48;1644358;84;25383;-81
2021/05/06 07:51:08;;;;;;;9.60;2.50;;;;;;;10.24;47.37;99320.53;1668647;84;21944;-84
2021/05/06 07:53:46;;;;;;;7.33;2.50;;;;;;;10.90;47.27;99304.22;1673934;84;27124;-83
2021/05/06 07:56:04;;;;;;;10.13;2.58;;;;;;;10.65;46.57;99293.86;1673059;83;21191;-81
2021/05/06 07:58:32;;;;;;;6.78;2.60;;;;;;;10.94;46.36;99313.44;1667971;84;21203;-82
2021/05/06 08:00:58;;;;;;;;;;;;;;;10.67;46.51;99334.10;1674298;84;21606;-81
2021/05/06 08:03:24;;;;;;;6.85;2.37;;;;;;;10.68;46.14;99313.31;1673295;84;20307;-83
2021/05/06 08:05:53;;;;;;;8.05;2.40;;;;;;;10.76;46.37;99306.63;1668306;84;20942;-84
2021/05/06 08:08:17;;;;;;;;;;;;;;;11.13;45.54;99314.23;1678566;83;21236;-83
2021/05/06 08:10:43;;;;;;;8.98;2.30;;;;;;;11.04;46.24;99319.27;1678829;84;20270;-85
2021/05/06 08:13:13;;;;;;;9.38;2.30;;;;;;;11.14;45.71;99309.27;1674121;83;25362;-83
2021/05/06 08:15:39;;;;;;;8.63;2.35;;;;;;;11.26;45.58;99324.20;1671403;84;21265;-86
2021/05/06 08:18:05;;;;;;;9.73;2.37;;;;;;;11.21;45.09;99372.78;1672859;83;21058;-86
2021/05/06 08:20:31;;;;;;;9.53;2.30;;;;;;;11.06;44.84;99329.17;1672871;83;21239;-86
2021/05/06 08:22:57;;;;;;;14.23;2.70;;;;;;;11.04;43.70;99327.70;1639705;84;21195;-81
2021/05/06 08:25:24;;;;;;;7.08;2.30;;;;;;;11.04;43.00;99373.43;1668728;84;21222;-84
2021/05/06 08:27:51;;;;;;;7.28;2.42;;;;;;;10.88;42.70;99359.05;1671896;84;21230;-87
2021/05/06 08:30:17;;;;;;;7.20;2.10;;;;;;;11.06;43.01;99349.47;1629247;84;21741;-86
2021/05/06 08:32:43;;;;;;;8.25;2.77;;;;;;;11.16;42.22;99336.84;1671136;84;21261;-84
2021/05/06 08:35:10;;;;;;;12.00;2.67;;;;;;;10.95;43.07;99363.92;1671765;83;27128;-86
2021/05/06 08:37:36;;;;;;;7.10;2.10;;;;;;;11.27;43.52;99340.35;1686428;83;21197;-85
2021/05/06 08:40:06;;;;;;;6.67;2.20;;;;;;;11.50;43.61;99340.28;1691627;83;21205;-84
2021/05/06 08:42:35;;;;;;;7.72;2.40;;;;;;;11.34;43.21;99356.30;1689864;82;21638;-84
2021/05/06 08:45:02;;;;;;;8.60;2.47;;;;;;;11.50;42.44;99328.89;1684125;84;21314;-85
2021/05/06 08:47:28;;;;;;;10.08;2.27;;;;;;;11.42;43.31;99346.98;1689522;83;21484;-85
2021/05/06 08:49:54;;;;;;;8.35;2.30;;;;;;;11.50;43.02;99353.50;1673102;83;34388;-84
2021/05/06 08:52:20;;;;;;;9.43;2.42;;;;;;;11.49;43.21;99332.53;1689386;82;20966;-86
2021/05/06 08:54:51;;;;;;;7.45;2.05;;;;;;;11.73;42.00;99330.59;1686223;83;21188;-86
2021/05/06 08:57:22;;;;;;;13.32;2.25;;;;;;;11.94;41.42;99354.51;1687613;83;21945;-85
2021/05/06 08:59:48;;;;;;;7.28;2.20;;;;;;;12.26;41.48;99356.42;1691839;83;21653;-85
2021/05/06 09:02:14;;;;;;;8.43;2.17;;;;;;;12.25;41.79;99360.58;1691834;83;26854;-87
2021/05/06 09:04:40;;;;;;;13.75;2.72;;;;;;;11.98;40.78;99362.92;1690643;83;21196;-90
2021/05/06 09:07:11;;;;;;;7.50;2.17;;;;;;;12.06;41.27;99376.04;1693294;83;21208;-84
2021/05/06 09:09:36;;;;;;;8.18;2.47;;;;;;;12.05;41.83;99341.30;1687859;83;21238;-84
2021/05/06 09:12:03;;;;;;;;;;;;;;;12.44;41.82;99340.09;1693976;83;21269;-83
2021/05/06 09:14:46;;;;;;;;;;;;;;;12.23;41.72;99362.57;1692792;84;20498;-82
2021/05/06 09:17:28;;;;;;;11.12;2.47;;;;;;;12.00;41.64;99360.90;1690362;84;21123;-83
2021/05/06 09:20:20;;;;;;;8.08;2.10;;;;;;;11.88;42.46;99365.80;1698369;82;21207;-78
2021/05/06 09:22:48;;;;;;;10.28;2.52;;;;;;;12.25;40.80;99349.98;1691176;82;21236;-83
2021/05/06 09:25:32;;;;;;;8.08;2.12;;;;;;;11.99;40.57;99356.60;1690673;83;21200;-85
2021/05/06 09:28:15;;;;;;;9.03;2.58;;;;;;;12.31;40.94;99343.95;1689134;83;21732;-84
2021/05/06 09:31:04;;;;;;;9.95;2.20;;;;;;;12.28;40.11;99343.00;1691906;84;21245;-85
2021/05/06 09:33:38;;;;;;;11.48;2.12;;;;;;;12.20;39.89;99382.31;1689049;83;21187;-88
2021/05/06 09:36:17;;;;;;;4.33;1.95;;;;;;;12.23;39.10;99346.69;1690962;83;21276;-84
2021/05/06 09:38:49;;;;;;;9.13;2.20;;;;;;;12.15;39.02;99347.14;1692862;83;21197;-85
2021/05/06 09:41:19;;;;;;;7.20;2.22;;;;;;;12.28;40.10;99350.94;1668373;82;21208;-83
2021/05/06 09:43:45;;;;;;;7.25;2.37;;;;;;;12.60;39.53;99347.00;1688938;83;21307;-82
2021/05/06 09:46:30;;;;;;;6.15;2.02;;;;;;;12.46;39.75;99357.96;1690888;83;21159;-83
2021/05/06 09:49:03;;;;;;;7.40;2.20;;;;;;;12.65;39.98;99354.38;1691634;82;21371;-84
2021/05/06 09:51:41;;;;;;;7.33;2.35;;;;;;;12.96;39.68;99349.22;1688888;82;21199;-86
2021/05/06 09:54:11;;;;;;;8.65;2.45;;;;;;;12.98;40.33;99368.42;1688348;82;21231;-84
2021/05/06 09:56:38;;;;;;;7.40;2.30;;;;;;;12.65;39.70;99368.95;1687951;82;21195;-84
2021/05/06 09:59:04;;;;;;;9.98;2.35;;;;;;;12.27;39.25;99355.91;1692289;82;21200;-83
2021/05/06 10:01:38;;;;;;;6.92;2.33;;;;;;;12.62;39.79;99348.14;1691501;83;21019;-84
2021/05/06 10:04:24;;;;;;;9.03;2.40;;;;;;;12.46;39.75;99383.60;1687083;83;21227;-85
2021/05/06 10:07:25;;;;;;;10.28;2.70;;;;;;;12.84;38.80;99343.13;1689401;84;21219;-82
2021/05/06 10:10:06;;;;;;;6.42;2.20;;;;;;;12.68;38.91;99355.33;1691496;84;21229;-82
2021/05/06 10:12:36;;;;;;;9.75;2.62;;;;;;;12.62;39.62;99370.65;1690400;83;21812;-83
2021/05/06 10:15:05;;;;;;;10.08;2.22;;;;;;;12.55;40.16;99358.64;1689556;84;21038;-87
2021/05/06 10:17:32;;;;;;;5.78;2.20;;;;;;;12.49;39.77;99397.31;1715523;82;21233;-84
2021/05/06 10:19:59;;;;;;;12.05;2.62;;;;;;;12.61;39.88;99367.67;1688219;84;21704;-89
2021/05/06 10:22:28;;;;;;;6.28;2.20;;;;;;;12.30;39.86;99400.54;1689548;83;21228;-85
2021/05/06 10:25:04;;;;;;;5.87;2.20;;;;;;;12.77;38.66;99383.33;1690199;82;21786;-86
2021/05/06 10:27:30;;;;;;;8.38;2.27;;;;;;;12.79;37.73;99385.27;1680169;83;21767;-81
2021/05/06 10:29:58;;;;;;;7.20;2.27;;;;;;;12.68;37.91;99369.37;1672519;84;21247;-86
2021/05/06 10:32:29;;;;;;;6.87;2.20;;;;;;;12.75;38.19;99366.78;1691041;82;21235;-84
2021/05/06 10:34:56;;;;;;;7.60;2.12;;;;;;;12.64;36.47;99377.89;1697028;82;21268;-87
2021/05/06 10:37:30;;;;;;;5.55;2.20;;;;;;;12.78;36.50;99363.75;1696519;82;21112;-82
2021/05/06 10:39:56;;;;;;;6.47;2.40;;;;;;;13.07;36.49;99373.91;1710819;82;21249;-83
2021/05/06 10:42:31;;;;;;;7.12;2.58;;;;;;;12.99;35.80;99370.05;1714509;82;21659;-83
2021/05/06 10:45:01;;;;;;;8.43;2.30;;;;;;;12.84;36.72;99381.55;1715699;82;22085;-83
2021/05/06 10:47:49;;;;;;;8.48;2.42;;;;;;;13.25;37.09;99359.67;1711801;82;21677;-83
2021/05/06 10:50:37;;;;;;;7.03;2.30;;;;;;;13.01;36.54;99378.64;1710729;82;21205;-86
2021/05/06 10:53:09;;;;;;;10.23;2.77;;;;;;;13.32;37.24;99364.20;1714583;81;21629;-90
2021/05/06 10:55:51;;;;;;;6.28;2.17;;;;;;;13.35;36.23;99363.84;1713080;82;21734;-84
2021/05/06 10:58:31;;;;;;;6.10;2.15;;;;;;;13.34;34.20;99383.41;1711675;81;21195;-88
2021/05/06 11:01:10;;;;;;;6.03;2.22;;;;;;;13.36;33.91;99386.67;1711016;82;21278;-87
2021/05/06 11:03:37;;;;;;;4.67;2.17;;;;;;;13.35;34.80;99375.27;1689048;81;21664;-86
2021/05/06 11:06:03;;;;;;;6.17;2.27;;;;;;;13.48;35.20;99403.70;1686720;82;22076;-84
2021/05/06 11:08:31;;;;;;;4.25;1.90;;;;;;;13.57;35.38;99369.37;1710447;82;21216;-86
2021/05/06 11:11:04;;;;;;;7.22;2.10;;;;;;;13.75;34.93;99386.13;1681312;82;21644;-85
2021/05/06 11:14:05;;;;;;;7.15;2.12;;;;;;;13.37;33.89;99372.42;1709040;82;21172;-83
2021/05/06 11:16:38;;;;;;;6.70;2.45;;;;;;;13.51;34.59;99368.83;1682660;83;21251;-83
2021/05/06 11:19:04;;;;;;;5.65;1.98;;;;;;;13.60;33.98;99378.28;1702964;82;22323;-83
2021/05/06 11:21:34;;;;;;;5.75;2.20;;;;;;;13.90;34.10;99375.37;1711980;82;21143;-86
2021/05/06 11:24:25;;;;;;;6.05;2.00;;;;;;;13.97;33.99;99408.08;1719140;82;21062;-85
2021/05/06 11:27:13;;;;;;;7.22;2.40;;;;;;;13.65;33.99;99381.16;1707884;82;21168;-84
2021/05/06 11:29:44;;;;;;;4.78;1.87;;;;;;;13.77;34.18;99374.80;1709751;82;21173;-89
2021/05/06 11:32:39;;;;;;;4.80;2.12;;;;;;;14.06;34.31;99384.86;1713190;82;21183;-85
2021/05/06 11:35:07;;;;;;;6.22;2.27;;;;;;;13.82;34.30;99375.02;1722296;81;21179;-90
2021/05/06 11:37:35;;;;;;;7.47;2.30;;;;;;;13.46;34.42;99411.04;1709457;82;21219;-87
2021/05/06 11:40:08;;;;;;;9.20;2.22;;;;;;;13.82;33.77;99396.25;1682332;83;21203;-84
2021/05/06 11:42:40;;;;;;;6.47;2.20;;;;;;;13.63;34.44;99436.25;1702853;83;21252;-87
2021/05/06 11:45:15;;;;;;;9.20;2.60;;;;;;;13.65;34.52;99397.59;1701783;83;21853;-89
2021/05/06 11:47:46;;;;;;;6.62;2.10;;;;;;;13.84;34.62;99394.73;1702278;82;21197;-87
2021/05/06 11:50:18;;;;;;;6.62;2.10;;;;;;;13.70;33.98;99385.06;1687668;83;21173;-87
2021/05/06 11:52:47;;;;;;;7.33;2.10;;;;;;;14.15;34.36;99365.08;1704418;82;21153;-84
2021/05/06 11:55:43;;;;;;;6.55;2.10;;;;;;;14.49;33.64;99367.82;1700592;82;21199;-86
2021/05/06 11:58:18;;;;;;;9.07;2.40;;;;;;;14.31;32.73;99386.48;1710655;82;21189;-83
2021/05/06 12:00:47;;;;;;;8.03;2.10;;;;;;;14.07;32.47;99373.72;1700629;83;21757;-85
2021/05/06 12:03:19;;;;;;;5.37;2.00;;;;;;;14.81;32.93;99376.09;1705362;81;21149;-85
2021/05/06 12:05:56;;;;;;;6.30;1.82;;;;;;;14.66;32.43;99374.42;1706737;82;21207;-91
2021/05/06 12:08:25;;;;;;;;;;;;;;;14.40;30.16;99380.98;1700525;82;21925;-83
2021/05/06 12:10:54;;;;;;;8.60;1.70;;;;;;;14.57;30.09;99378.25;1702604;82;21115;-86
2021/05/06 12:13:35;;;;;;;4.62;1.67;;;;;;;14.36;29.62;99376.06;1696597;83;21075;-91
2021/05/06 12:16:14;;;;;;;7.10;2.02;;;;;;;14.78;29.42;99365.88;1695929;83;22404;-84
2021/05/06 12:18:46;;;;;;;7.75;2.35;;;;;;;14.52;30.74;99371.41;1699196;82;21237;-94
2021/05/06 12:21:17;;;;;;;7.47;2.47;;;;;;;14.62;30.97;99372.37;1689336;83;21228;-86
2021/05/06 12:23:53;;;;;;;5.33;1.92;;;;;;;14.38;31.21;99369.74;1696974;83;21201;-86
2021/05/06 12:26:22;;;;;;;5.65;2.08;;;;;;;14.33;30.83;99361.85;1688618;84;21343;-84
2021/05/06 12:28:48;;;;;;;3.22;1.77;;;;;;;14.27;31.33;99362.66;1692213;84;21556;-83
2021/05/06 12:31:17;;;;;;;6.42;1.72;;;;;;;14.31;32.23;99359.91;1690334;83;21062;-91
2021/05/06 12:33:45;;;;;;;10.25;2.30;;;;;;;14.62;32.55;99365.72;1697750;83;21198;-85
2021/05/06 12:36:14;;;;;;;;;;;;;;;14.59;32.21;99365.61;1707325;82;22149;-83
2021/05/06 12:38:47;;;;;;;4.37;1.80;;;;;;;14.61;32.91;99351.63;1704446;82;20325;-89
2021/05/06 12:41:17;;;;;;;4.97;1.80;;;;;;;14.79;33.09;99350.20;1712878;82;21071;-88
2021/05/06 12:43:53;;;;;;;9.05;2.27;;;;;;;14.85;33.17;99345.41;1689186;82;21140;-94
2021/05/06 12:46:25;;;;;;;5.72;2.17;;;;;;;14.41;33.40;99360.05;1701154;82;21201;-90
2021/05/06 12:48:58;;;;;;;7.95;2.05;;;;;;;14.40;33.37;99334.49;1703238;82;21192;-89
2021/05/06 12:51:31;;;;;;;7.00;2.20;;;;;;;14.57;33.06;99341.05;1705623;82;21232;-85
2021/05/06 12:54:11;;;;;;;5.37;2.17;;;;;;;14.49;33.35;99355.86;1707625;82;21208;-88
2021/05/06 12:56:42;;;;;;;6.50;2.05;;;;;;;14.38;33.63;99341.85;1707227;81;21618;-86
2021/05/06 12:59:29;;;;;;;3.45;1.87;;;;;;;14.82;33.89;99337.84;1709448;82;21212;-85
2021/05/06 13:02:07;;;;;;;;;;;;;;;14.97;32.58;99325.69;1710891;81;21282;-87
2021/05/06 13:04:52;;;;;;;3.27;1.82;;;;;;;15.07;30.96;99369.95;1705507;82;20328;-85
2021/05/06 13:07:26;;;;;;;5.30;1.90;;;;;;;14.94;31.17;99322.11;1705123;82;21237;-90
2021/05/06 13:09:56;;;;;;;4.05;1.70;;;;;;;14.78;31.32;99311.38;1703156;82;21189;-89
2021/05/06 13:12:29;;;;;;;3.12;1.62;;;;;;;15.39;30.59;99333.70;1705674;82;21179;-88
2021/05/06 13:15:08;;;;;;;5.67;1.90;;;;;;;15.50;30.04;99313.63;1703513;82;21088;-88
2021/05/06 13:17:35;;;;;;;4.67;2.10;;;;;;;15.51;30.24;99349.86;1690752;82;21639;-88
2021/05/06 13:20:23;;;;;;;4.25;1.50;;;;;;;15.33;31.06;99339.86;1711340;82;21734;-90
2021/05/06 13:23:07;;;;;;;3.98;1.52;;;;;;;14.96;31.11;99334.19;1706012;82;21196;-89
2021/05/06 13:25:46;;;;;;;6.87;1.90;;;;;;;14.79;31.23;99328.95;1704841;82;21715;-88
2021/05/06 13:28:21;;;;;;;4.97;1.65;;;;;;;14.68;31.73;99329.87;1710344;82;21220;-93
2021/05/06 13:30:47;;;;;;;3.80;1.75;;;;;;;14.38;32.78;99353.80;1702259;82;21259;-91
2021/05/06 13:33:18;;;;;;;4.20;1.55;;;;;;;14.50;33.26;99362.83;1712626;82;21564;-89
2021/05/06 13:36:08;;;;;;;7.60;1.70;;;;;;;14.09;34.38;99341.14;1708346;82;21201;-91
2021/05/06 13:38:54;;;;;;;4.55;1.60;;;;;;;13.81;34.98;99350.01;1708940;82;21219;-89
2021/05/06 13:41:28;;;;;;;8.33;1.90;;;;;;;13.67;36.19;99361.58;1710107;82;21712;-86
2021/05/06 13:43:57;;;;;;;5.83;1.90;;;;;;;13.22;38.16;99391.87;1702456;82;21283;-87
2021/05/06 13:46:24;;;;;;;4.58;1.75;;;;;;;12.88;42.38;99407.14;1707104;82;21079;-88
2021/05/06 13:48:52;;;;;;;5.30;2.10;;;;;;;12.99;42.85;99391.25;1708574;82;21192;-88
2021/05/06 13:51:19;;;;;;;3.42;1.62;;;;;;;12.65;43.81;99388.81;1709480;82;22372;-88
2021/05/06 13:53:48;;;;;;;4.45;1.85;;;;;;;12.66;44.58;99389.11;1706225;82;21395;-88
2021/05/06 13:56:14;;;;;;;4.28;1.82;;;;;;;12.83;43.96;99377.24;1710124;82;22260;-87
2021/05/06 13:58:43;;;;;;;6.12;1.82;;;;;;;12.96;43.36;99352.71;1707742;82;21121;-89
2021/05/06 14:01:10;;;;;;;5.42;1.85;;;;;;;13.36;41.85;99349.55;1707679;82;21180;-88
2021/05/06 14:03:36;;;;;;;3.62;1.80;;;;;;;13.73;40.62;99348.85;1713040;82;21157;-94
2021/05/06 14:06:02;;;;;;;5.25;1.70;;;;;;;13.83;40.48;99342.69;1709638;82;21981;-89
2021/05/06 14:08:28;;;;;;;6.15;2.27;;;;;;;14.33;40.77;99352.56;1712741;82;21220;-94
2021/05/06 14:10:55;;;;;;;6.05;1.80;;;;;;;14.52;40.45;99354.94;1718058;82;21010;-93
2021/05/06 14:13:24;;;;;;;3.40;1.82;;;;;;;14.56;40.17;99352.72;1717772;82;21805;-88
2021/05/06 14:15:50;;;;;;;3.58;2.12;;;;;;;15.11;39.17;99351.23;1714139;82;21187;-93
2021/05/06 14:18:18;;;;;;;3.83;1.82;;;;;;;14.97;38.82;99341.12;1717737;82;21185;-90
2021/05/06 14:20:45;;;;;;;7.45;1.80;;;;;;;15.03;38.63;99342.96;1710870;82;21207;-88
2021/05/06 14:23:11;;;;;;;5.60;1.90;;;;;;;14.89;38.86;99344.80;1709634;82;21201;-88
2021/05/06 14:25:37;;;;;;;3.55;1.95;;;;;;;15.46;38.33;99330.22;1708355;82;21662;-91
2021/05/06 14:28:04;;;;;;;3.90;1.92;;;;;;;15.41;37.67;99342.31;1712809;82;20990;-90
2021/05/06 14:30:30;;;;;;;4.55;2.15;;;;;;;15.36;37.87;99334.12;1710351;82;21798;-93
2021/05/06 14:32:56;;;;;;;4.40;2.12;;;;;;;15.84;36.15;99321.55;1711238;82;21220;-93
2021/05/06 14:35:22;;;;;;;4.35;2.05;;;;;;;15.89;35.62;99328.38;1711497;82;21461;-92
2021/05/06 14:37:48;;;;;;;4.37;1.98;;;;;;;15.75;35.47;99334.23;1709148;82;21653;-96
2021/05/06 14:40:14;;;;;;;3.72;1.80;;;;;;;15.35;35.32;99349.80;1710316;82;21320;-92
2021/05/06 14:42:40;;;;;;;4.78;1.95;;;;;;;15.17;35.67;99344.30;1708404;82;21160;-91
2021/05/06 14:45:08;;;;;;;7.00;1.70;;;;;;;15.21;35.83;99321.06;1703776;82;21054;-94
2021/05/06 14:47:36;;;;;;;6.22;2.12;;;;;;;15.38;35.87;99320.61;1686646;82;21088;-95